sensor_id;sensor_type;location;lat;lon;timestamp;temperature;humidity
70456;DHT22;57916;51.996;5.180;2023-09-18T00:00:48;22.40;81.10
70456;DHT22;57916;51.996;5.180;2023-09-18T00:03:19;22.40;81.10
70456;DHT22;57916;51.996;5.180;2023-09-18T00:05:47;22.50;81.10
70456;DHT22;57916;51.996;5.180;2023-09-18T00:08:16;22.50;81.10
70456;DHT22;57916;51.996;5.180;2023-09-18T00:10:53;22.50;81.10
70456;DHT22;57916;51.996;5.180;2023-09-18T00:13:21;22.50;81.00
70456;DHT22;57916;51.996;5.180;2023-09-18T00:15:48;22.50;81.00
70456;DHT22;57916;51.996;5.180;2023-09-18T00:18:16;22.50;81.00
70456;DHT22;57916;51.996;5.180;2023-09-18T00:20:43;22.50;80.90
70456;DHT22;57916;51.996;5.180;2023-09-18T00:23:10;22.50;80.90
70456;DHT22;57916;51.996;5.180;2023-09-18T00:25:37;22.60;81.00
70456;DHT22;57916;51.996;5.180;2023-09-18T00:28:04;22.60;80.90
70456;DHT22;57916;51.996;5.180;2023-09-18T00:30:31;22.60;80.80
70456;DHT22;57916;51.996;5.180;2023-09-18T00:32:58;22.60;80.80
70456;DHT22;57916;51.996;5.180;2023-09-18T00:35:25;22.60;80.60
70456;DHT22;57916;51.996;5.180;2023-09-18T00:37:52;22.60;80.70
70456;DHT22;57916;51.996;5.180;2023-09-18T00:40:19;22.60;80.70
70456;DHT22;57916;51.996;5.180;2023-09-18T00:42:47;22.60;80.60
70456;DHT22;57916;51.996;5.180;2023-09-18T00:45:14;22.60;80.50
70456;DHT22;57916;51.996;5.180;2023-09-18T00:47:42;22.60;80.50
70456;DHT22;57916;51.996;5.180;2023-09-18T00:50:12;22.60;80.30
70456;DHT22;57916;51.996;5.180;2023-09-18T00:52:41;22.70;80.20
70456;DHT22;57916;51.996;5.180;2023-09-18T00:55:08;22.60;80.20
70456;DHT22;57916;51.996;5.180;2023-09-18T00:57:36;22.60;80.30
70456;DHT22;57916;51.996;5.180;2023-09-18T01:00:04;22.60;80.40
70456;DHT22;57916;51.996;5.180;2023-09-18T01:02:32;22.60;80.50
70456;DHT22;57916;51.996;5.180;2023-09-18T01:04:59;22.50;80.40
70456;DHT22;57916;51.996;5.180;2023-09-18T01:07:26;22.50;80.40
70456;DHT22;57916;51.996;5.180;2023-09-18T01:09:56;22.50;80.40
70456;DHT22;57916;51.996;5.180;2023-09-18T01:12:39;22.50;80.50
70456;DHT22;57916;51.996;5.180;2023-09-18T01:15:44;22.50;80.50
70456;DHT22;57916;51.996;5.180;2023-09-18T01:18:12;22.50;80.60
70456;DHT22;57916;51.996;5.180;2023-09-18T01:20:40;22.50;80.70
70456;DHT22;57916;51.996;5.180;2023-09-18T01:23:07;22.50;80.90
70456;DHT22;57916;51.996;5.180;2023-09-18T01:25:34;22.50;80.90
70456;DHT22;57916;51.996;5.180;2023-09-18T01:28:01;22.50;80.90
70456;DHT22;57916;51.996;5.180;2023-09-18T01:30:28;22.50;80.90
70456;DHT22;57916;51.996;5.180;2023-09-18T01:32:59;22.50;81.00
70456;DHT22;57916;51.996;5.180;2023-09-18T01:35:27;22.50;81.10
70456;DHT22;57916;51.996;5.180;2023-09-18T01:37:58;22.40;81.10
70456;DHT22;57916;51.996;5.180;2023-09-18T01:40:26;22.40;81.10
70456;DHT22;57916;51.996;5.180;2023-09-18T01:42:53;22.50;81.00
70456;DHT22;57916;51.996;5.180;2023-09-18T01:45:20;22.50;80.80
70456;DHT22;57916;51.996;5.180;2023-09-18T01:47:47;22.60;80.70
70456;DHT22;57916;51.996;5.180;2023-09-18T01:50:14;22.60;80.60
70456;DHT22;57916;51.996;5.180;2023-09-18T01:52:41;22.70;80.50
70456;DHT22;57916;51.996;5.180;2023-09-18T01:55:08;22.70;80.30
70456;DHT22;57916;51.996;5.180;2023-09-18T01:57:35;22.70;80.20
70456;DHT22;57916;51.996;5.180;2023-09-18T02:00:03;22.70;80.30
70456;DHT22;57916;51.996;5.180;2023-09-18T02:02:38;22.70;80.30
70456;DHT22;57916;51.996;5.180;2023-09-18T02:05:25;22.60;80.30
70456;DHT22;57916;51.996;5.180;2023-09-18T02:07:53;22.60;80.40
70456;DHT22;57916;51.996;5.180;2023-09-18T02:10:20;22.60;80.50
70456;DHT22;57916;51.996;5.180;2023-09-18T02:12:46;22.60;80.70
70456;DHT22;57916;51.996;5.180;2023-09-18T02:15:14;22.50;80.60
70456;DHT22;57916;51.996;5.180;2023-09-18T02:17:43;22.60;80.70
70456;DHT22;57916;51.996;5.180;2023-09-18T02:20:13;22.60;80.70
70456;DHT22;57916;51.996;5.180;2023-09-18T02:22:40;22.60;80.70
70456;DHT22;57916;51.996;5.180;2023-09-18T02:25:08;22.60;80.60
70456;DHT22;57916;51.996;5.180;2023-09-18T02:27:35;22.70;80.50
70456;DHT22;57916;51.996;5.180;2023-09-18T02:30:01;22.70;80.30
70456;DHT22;57916;51.996;5.180;2023-09-18T02:32:28;22.70;80.10
70456;DHT22;57916;51.996;5.180;2023-09-18T02:34:57;22.80;79.90
70456;DHT22;57916;51.996;5.180;2023-09-18T02:37:25;22.90;79.70
70456;DHT22;57916;51.996;5.180;2023-09-18T02:39:51;22.90;79.40
70456;DHT22;57916;51.996;5.180;2023-09-18T02:42:18;23.00;79.10
70456;DHT22;57916;51.996;5.180;2023-09-18T02:44:45;23.00;79.00
70456;DHT22;57916;51.996;5.180;2023-09-18T02:47:12;23.00;78.90
70456;DHT22;57916;51.996;5.180;2023-09-18T02:49:40;23.00;79.00
70456;DHT22;57916;51.996;5.180;2023-09-18T02:52:07;22.90;79.10
70456;DHT22;57916;51.996;5.180;2023-09-18T02:54:34;22.90;79.20
70456;DHT22;57916;51.996;5.180;2023-09-18T02:57:01;23.00;79.00
70456;DHT22;57916;51.996;5.180;2023-09-18T02:59:28;23.00;78.90
70456;DHT22;57916;51.996;5.180;2023-09-18T03:01:55;23.00;78.80
70456;DHT22;57916;51.996;5.180;2023-09-18T03:04:23;23.00;78.80
70456;DHT22;57916;51.996;5.180;2023-09-18T03:06:49;23.00;79.00
70456;DHT22;57916;51.996;5.180;2023-09-18T03:09:16;23.00;79.10
70456;DHT22;57916;51.996;5.180;2023-09-18T03:11:45;22.90;79.10
70456;DHT22;57916;51.996;5.180;2023-09-18T03:14:12;22.90;79.10
70456;DHT22;57916;51.996;5.180;2023-09-18T03:16:39;23.00;79.00
70456;DHT22;57916;51.996;5.180;2023-09-18T03:19:06;23.00;78.90
70456;DHT22;57916;51.996;5.180;2023-09-18T03:21:33;23.00;78.80
70456;DHT22;57916;51.996;5.180;2023-09-18T03:24:02;23.00;78.70
70456;DHT22;57916;51.996;5.180;2023-09-18T03:26:30;23.00;78.60
70456;DHT22;57916;51.996;5.180;2023-09-18T03:28:57;22.90;78.70
70456;DHT22;57916;51.996;5.180;2023-09-18T03:31:24;22.90;78.90
70456;DHT22;57916;51.996;5.180;2023-09-18T03:33:51;22.90;78.90
70456;DHT22;57916;51.996;5.180;2023-09-18T03:36:21;22.90;78.80
70456;DHT22;57916;51.996;5.180;2023-09-18T03:38:49;22.90;78.70
70456;DHT22;57916;51.996;5.180;2023-09-18T03:41:17;22.90;78.70
70456;DHT22;57916;51.996;5.180;2023-09-18T03:43:44;22.90;78.40
70456;DHT22;57916;51.996;5.180;2023-09-18T03:46:11;22.80;78.40
70456;DHT22;57916;51.996;5.180;2023-09-18T03:48:43;22.80;78.70
70456;DHT22;57916;51.996;5.180;2023-09-18T03:51:10;22.80;79.30
70456;DHT22;57916;51.996;5.180;2023-09-18T03:53:42;22.70;79.70
70456;DHT22;57916;51.996;5.180;2023-09-18T03:56:09;22.70;80.00
70456;DHT22;57916;51.996;5.180;2023-09-18T03:58:36;22.70;80.20
70456;DHT22;57916;51.996;5.180;2023-09-18T04:01:03;22.70;80.40
70456;DHT22;57916;51.996;5.180;2023-09-18T04:03:30;22.70;80.60
70456;DHT22;57916;51.996;5.180;2023-09-18T04:05:58;22.70;80.70
70456;DHT22;57916;51.996;5.180;2023-09-18T04:08:25;22.80;80.70
70456;DHT22;57916;51.996;5.180;2023-09-18T04:10:54;22.80;80.60
70456;DHT22;57916;51.996;5.180;2023-09-18T04:13:24;22.90;80.60
70456;DHT22;57916;51.996;5.180;2023-09-18T04:15:52;22.90;80.40
70456;DHT22;57916;51.996;5.180;2023-09-18T04:18:24;23.00;80.30
70456;DHT22;57916;51.996;5.180;2023-09-18T04:20:52;23.10;80.20
70456;DHT22;57916;51.996;5.180;2023-09-18T04:23:27;23.10;80.10
70456;DHT22;57916;51.996;5.180;2023-09-18T04:25:55;23.20;79.90
70456;DHT22;57916;51.996;5.180;2023-09-18T04:28:25;23.20;79.60
70456;DHT22;57916;51.996;5.180;2023-09-18T04:30:52;23.20;79.10
70456;DHT22;57916;51.996;5.180;2023-09-18T04:33:20;23.20;78.30
70456;DHT22;57916;51.996;5.180;2023-09-18T04:35:48;23.20;77.80
70456;DHT22;57916;51.996;5.180;2023-09-18T04:38:15;23.30;77.80
70456;DHT22;57916;51.996;5.180;2023-09-18T04:40:43;23.30;77.90
70456;DHT22;57916;51.996;5.180;2023-09-18T04:43:12;23.30;78.00
70456;DHT22;57916;51.996;5.180;2023-09-18T04:45:39;23.30;78.20
70456;DHT22;57916;51.996;5.180;2023-09-18T04:48:07;23.40;78.30
70456;DHT22;57916;51.996;5.180;2023-09-18T04:50:35;23.40;78.40
70456;DHT22;57916;51.996;5.180;2023-09-18T04:53:02;23.30;78.60
70456;DHT22;57916;51.996;5.180;2023-09-18T04:55:31;23.30;78.90
70456;DHT22;57916;51.996;5.180;2023-09-18T04:57:58;23.30;79.10
70456;DHT22;57916;51.996;5.180;2023-09-18T05:00:27;23.30;79.30
70456;DHT22;57916;51.996;5.180;2023-09-18T05:02:56;23.20;79.30
70456;DHT22;57916;51.996;5.180;2023-09-18T05:05:24;23.10;79.40
70456;DHT22;57916;51.996;5.180;2023-09-18T05:07:51;23.10;79.60
70456;DHT22;57916;51.996;5.180;2023-09-18T05:10:18;23.00;79.60
70456;DHT22;57916;51.996;5.180;2023-09-18T05:12:45;22.90;79.60
70456;DHT22;57916;51.996;5.180;2023-09-18T05:15:12;22.90;79.50
70456;DHT22;57916;51.996;5.180;2023-09-18T05:17:44;22.90;79.40
70456;DHT22;57916;51.996;5.180;2023-09-18T05:20:16;22.90;79.30
70456;DHT22;57916;51.996;5.180;2023-09-18T05:22:44;22.90;79.10
70456;DHT22;57916;51.996;5.180;2023-09-18T05:25:12;22.90;79.00
70456;DHT22;57916;51.996;5.180;2023-09-18T05:27:41;22.90;78.90
70456;DHT22;57916;51.996;5.180;2023-09-18T05:30:13;23.00;78.80
70456;DHT22;57916;51.996;5.180;2023-09-18T05:32:42;23.00;78.50
70456;DHT22;57916;51.996;5.180;2023-09-18T05:35:10;23.00;78.40
70456;DHT22;57916;51.996;5.180;2023-09-18T05:37:40;23.00;79.20
70456;DHT22;57916;51.996;5.180;2023-09-18T05:40:10;23.00;78.30
70456;DHT22;57916;51.996;5.180;2023-09-18T05:42:38;23.10;78.30
70456;DHT22;57916;51.996;5.180;2023-09-18T05:45:06;23.10;78.20
70456;DHT22;57916;51.996;5.180;2023-09-18T05:47:33;23.10;78.00
70456;DHT22;57916;51.996;5.180;2023-09-18T05:50:02;23.20;77.90
70456;DHT22;57916;51.996;5.180;2023-09-18T05:52:34;23.20;77.80
70456;DHT22;57916;51.996;5.180;2023-09-18T05:55:05;23.20;77.60
70456;DHT22;57916;51.996;5.180;2023-09-18T05:57:34;23.20;77.70
70456;DHT22;57916;51.996;5.180;2023-09-18T06:00:01;23.20;77.70
70456;DHT22;57916;51.996;5.180;2023-09-18T06:02:37;23.10;77.70
70456;DHT22;57916;51.996;5.180;2023-09-18T06:05:04;23.10;77.90
70456;DHT22;57916;51.996;5.180;2023-09-18T06:07:32;23.10;78.10
70456;DHT22;57916;51.996;5.180;2023-09-18T06:09:59;23.10;78.00
70456;DHT22;57916;51.996;5.180;2023-09-18T06:12:26;23.10;78.20
70456;DHT22;57916;51.996;5.180;2023-09-18T06:14:53;23.00;78.40
70456;DHT22;57916;51.996;5.180;2023-09-18T06:17:20;23.00;78.40
70456;DHT22;57916;51.996;5.180;2023-09-18T06:19:47;22.90;78.40
70456;DHT22;57916;51.996;5.180;2023-09-18T06:22:14;22.90;78.60
70456;DHT22;57916;51.996;5.180;2023-09-18T06:24:41;22.90;78.80
70456;DHT22;57916;51.996;5.180;2023-09-18T06:27:09;22.80;79.10
70456;DHT22;57916;51.996;5.180;2023-09-18T06:29:37;22.80;79.40
70456;DHT22;57916;51.996;5.180;2023-09-18T06:32:06;22.80;79.70
70456;DHT22;57916;51.996;5.180;2023-09-18T06:34:33;22.80;80.00
70456;DHT22;57916;51.996;5.180;2023-09-18T06:37:00;22.80;80.30
70456;DHT22;57916;51.996;5.180;2023-09-18T06:39:29;22.80;80.50
70456;DHT22;57916;51.996;5.180;2023-09-18T06:41:56;22.70;80.70
70456;DHT22;57916;51.996;5.180;2023-09-18T06:44:23;22.70;80.90
70456;DHT22;57916;51.996;5.180;2023-09-18T06:46:50;22.70;81.20
70456;DHT22;57916;51.996;5.180;2023-09-18T06:49:19;22.70;81.20
70456;DHT22;57916;51.996;5.180;2023-09-18T06:51:46;22.70;81.40
70456;DHT22;57916;51.996;5.180;2023-09-18T06:54:13;22.70;81.40
70456;DHT22;57916;51.996;5.180;2023-09-18T06:56:40;22.70;81.30
70456;DHT22;57916;51.996;5.180;2023-09-18T06:59:08;22.60;81.30
70456;DHT22;57916;51.996;5.180;2023-09-18T07:01:35;22.70;81.20
70456;DHT22;57916;51.996;5.180;2023-09-18T07:04:02;22.70;81.10
70456;DHT22;57916;51.996;5.180;2023-09-18T07:06:31;22.70;80.90
70456;DHT22;57916;51.996;5.180;2023-09-18T07:08:58;22.70;80.60
70456;DHT22;57916;51.996;5.180;2023-09-18T07:11:26;22.70;80.60
70456;DHT22;57916;51.996;5.180;2023-09-18T07:13:53;22.70;80.60
70456;DHT22;57916;51.996;5.180;2023-09-18T07:16:19;22.80;80.10
70456;DHT22;57916;51.996;5.180;2023-09-18T07:18:47;22.70;79.70
70456;DHT22;57916;51.996;5.180;2023-09-18T07:21:13;22.80;79.60
70456;DHT22;57916;51.996;5.180;2023-09-18T07:23:40;22.70;79.30
70456;DHT22;57916;51.996;5.180;2023-09-18T07:26:08;22.80;79.20
70456;DHT22;57916;51.996;5.180;2023-09-18T07:28:35;22.80;79.00
70456;DHT22;57916;51.996;5.180;2023-09-18T07:31:09;22.70;78.80
70456;DHT22;57916;51.996;5.180;2023-09-18T07:33:36;22.80;78.90
70456;DHT22;57916;51.996;5.180;2023-09-18T07:36:03;22.70;78.90
70456;DHT22;57916;51.996;5.180;2023-09-18T07:38:30;22.80;78.50
70456;DHT22;57916;51.996;5.180;2023-09-18T07:40:57;22.80;78.40
70456;DHT22;57916;51.996;5.180;2023-09-18T07:43:25;22.80;78.20
70456;DHT22;57916;51.996;5.180;2023-09-18T07:45:53;22.80;78.50
70456;DHT22;57916;51.996;5.180;2023-09-18T07:48:22;22.70;78.80
70456;DHT22;57916;51.996;5.180;2023-09-18T07:50:49;22.80;78.70
70456;DHT22;57916;51.996;5.180;2023-09-18T07:53:18;22.80;78.80
70456;DHT22;57916;51.996;5.180;2023-09-18T07:55:48;22.80;78.80
70456;DHT22;57916;51.996;5.180;2023-09-18T07:58:15;22.80;78.40
70456;DHT22;57916;51.996;5.180;2023-09-18T08:00:42;22.80;78.30
70456;DHT22;57916;51.996;5.180;2023-09-18T08:03:09;22.80;78.70
70456;DHT22;57916;51.996;5.180;2023-09-18T08:05:36;22.80;78.50
70456;DHT22;57916;51.996;5.180;2023-09-18T08:08:04;22.80;78.70
70456;DHT22;57916;51.996;5.180;2023-09-18T08:10:32;22.80;78.90
70456;DHT22;57916;51.996;5.180;2023-09-18T08:12:59;22.90;78.70
70456;DHT22;57916;51.996;5.180;2023-09-18T08:15:26;22.90;78.30
70456;DHT22;57916;51.996;5.180;2023-09-18T08:17:54;23.00;78.00
70456;DHT22;57916;51.996;5.180;2023-09-18T08:20:21;23.00;77.70
70456;DHT22;57916;51.996;5.180;2023-09-18T08:22:48;23.00;77.60
70456;DHT22;57916;51.996;5.180;2023-09-18T08:25:15;23.10;77.20
70456;DHT22;57916;51.996;5.180;2023-09-18T08:27:43;23.10;76.70
70456;DHT22;57916;51.996;5.180;2023-09-18T08:30:12;23.10;76.60
70456;DHT22;57916;51.996;5.180;2023-09-18T08:32:41;23.20;76.80
70456;DHT22;57916;51.996;5.180;2023-09-18T08:35:09;23.20;76.80
70456;DHT22;57916;51.996;5.180;2023-09-18T08:37:36;23.40;76.90
70456;DHT22;57916;51.996;5.180;2023-09-18T08:40:03;23.50;76.40
70456;DHT22;57916;51.996;5.180;2023-09-18T08:42:46;23.80;76.10
70456;DHT22;57916;51.996;5.180;2023-09-18T08:46:05;24.10;74.20
70456;DHT22;57916;51.996;5.180;2023-09-18T08:48:13;24.50;73.10
70456;DHT22;57916;51.996;5.180;2023-09-18T08:50:40;24.80;72.10
70456;DHT22;57916;51.996;5.180;2023-09-18T08:53:08;25.20;71.10
70456;DHT22;57916;51.996;5.180;2023-09-18T08:55:35;25.50;70.00
70456;DHT22;57916;51.996;5.180;2023-09-18T08:58:03;25.80;68.90
70456;DHT22;57916;51.996;5.180;2023-09-18T09:00:30;26.10;67.10
70456;DHT22;57916;51.996;5.180;2023-09-18T09:02:57;26.20;65.50
70456;DHT22;57916;51.996;5.180;2023-09-18T09:05:24;26.30;65.40
70456;DHT22;57916;51.996;5.180;2023-09-18T09:07:51;26.30;65.20
70456;DHT22;57916;51.996;5.180;2023-09-18T09:10:18;26.30;64.70
70456;DHT22;57916;51.996;5.180;2023-09-18T09:12:49;26.40;64.40
70456;DHT22;57916;51.996;5.180;2023-09-18T09:15:16;26.50;63.60
70456;DHT22;57916;51.996;5.180;2023-09-18T09:17:44;26.50;64.00
70456;DHT22;57916;51.996;5.180;2023-09-18T09:20:13;26.50;63.70
70456;DHT22;57916;51.996;5.180;2023-09-18T09:22:41;26.60;63.30
70456;DHT22;57916;51.996;5.180;2023-09-18T09:25:21;26.70;63.50
70456;DHT22;57916;51.996;5.180;2023-09-18T09:27:48;26.70;62.40
70456;DHT22;57916;51.996;5.180;2023-09-18T09:30:20;26.70;62.10
70456;DHT22;57916;51.996;5.180;2023-09-18T09:32:49;26.60;61.60
70456;DHT22;57916;51.996;5.180;2023-09-18T09:35:27;26.50;62.10
70456;DHT22;57916;51.996;5.180;2023-09-18T09:37:57;26.40;62.20
70456;DHT22;57916;51.996;5.180;2023-09-18T09:40:25;26.20;62.70
70456;DHT22;57916;51.996;5.180;2023-09-18T09:42:57;26.00;62.80
70456;DHT22;57916;51.996;5.180;2023-09-18T09:45:28;25.80;63.00
70456;DHT22;57916;51.996;5.180;2023-09-18T09:48:06;25.60;63.90
70456;DHT22;57916;51.996;5.180;2023-09-18T09:50:35;25.50;65.10
70456;DHT22;57916;51.996;5.180;2023-09-18T09:53:13;25.40;65.40
70456;DHT22;57916;51.996;5.180;2023-09-18T09:55:41;25.40;65.50
70456;DHT22;57916;51.996;5.180;2023-09-18T09:58:09;25.40;65.20
70456;DHT22;57916;51.996;5.180;2023-09-18T10:00:46;25.30;64.30
70456;DHT22;57916;51.996;5.180;2023-09-18T10:03:17;25.20;64.30
70456;DHT22;57916;51.996;5.180;2023-09-18T10:05:46;25.10;64.80
70456;DHT22;57916;51.996;5.180;2023-09-18T10:08:19;25.00;65.50
70456;DHT22;57916;51.996;5.180;2023-09-18T10:10:48;24.90;65.70
70456;DHT22;57916;51.996;5.180;2023-09-18T10:13:16;24.80;66.50
70456;DHT22;57916;51.996;5.180;2023-09-18T10:15:44;24.80;66.70
70456;DHT22;57916;51.996;5.180;2023-09-18T10:18:30;24.70;67.00
70456;DHT22;57916;51.996;5.180;2023-09-18T10:21:20;24.50;67.50
70456;DHT22;57916;51.996;5.180;2023-09-18T10:26:55;24.40;68.40
70456;DHT22;57916;51.996;5.180;2023-09-18T10:29:23;24.40;69.20
70456;DHT22;57916;51.996;5.180;2023-09-18T10:31:53;24.60;68.80
70456;DHT22;57916;51.996;5.180;2023-09-18T10:34:23;24.70;68.00
70456;DHT22;57916;51.996;5.180;2023-09-18T10:36:52;24.70;67.30
70456;DHT22;57916;51.996;5.180;2023-09-18T10:39:20;24.60;66.70
70456;DHT22;57916;51.996;5.180;2023-09-18T10:41:54;24.60;67.40
70456;DHT22;57916;51.996;5.180;2023-09-18T10:44:23;24.60;66.80
70456;DHT22;57916;51.996;5.180;2023-09-18T10:46:51;24.60;67.50
70456;DHT22;57916;51.996;5.180;2023-09-18T10:49:19;24.50;66.80
70456;DHT22;57916;51.996;5.180;2023-09-18T10:51:47;24.50;67.70
70456;DHT22;57916;51.996;5.180;2023-09-18T10:54:16;24.60;68.20
70456;DHT22;57916;51.996;5.180;2023-09-18T10:56:43;24.80;68.60
70456;DHT22;57916;51.996;5.180;2023-09-18T10:59:10;25.10;68.40
70456;DHT22;57916;51.996;5.180;2023-09-18T11:01:37;25.30;65.90
70456;DHT22;57916;51.996;5.180;2023-09-18T11:04:06;25.40;65.10
70456;DHT22;57916;51.996;5.180;2023-09-18T11:11:52;25.70;63.00
70456;DHT22;57916;51.996;5.180;2023-09-18T11:14:46;25.80;62.80
70456;DHT22;57916;51.996;5.180;2023-09-18T11:17:38;25.70;62.10
70456;DHT22;57916;51.996;5.180;2023-09-18T11:20:20;25.60;62.60
70456;DHT22;57916;51.996;5.180;2023-09-18T11:22:48;25.50;62.60
70456;DHT22;57916;51.996;5.180;2023-09-18T11:28:16;25.40;63.30
70456;DHT22;57916;51.996;5.180;2023-09-18T11:30:55;25.40;63.60
70456;DHT22;57916;51.996;5.180;2023-09-18T11:33:34;25.30;64.30
70456;DHT22;57916;51.996;5.180;2023-09-18T11:36:12;25.40;64.80
70456;DHT22;57916;51.996;5.180;2023-09-18T11:38:55;25.40;64.30
70456;DHT22;57916;51.996;5.180;2023-09-18T11:41:27;25.30;63.60
70456;DHT22;57916;51.996;5.180;2023-09-18T11:46:50;25.20;64.20
70456;DHT22;57916;51.996;5.180;2023-09-18T11:49:23;25.20;64.00
70456;DHT22;57916;51.996;5.180;2023-09-18T11:51:52;25.10;63.80
70456;DHT22;57916;51.996;5.180;2023-09-18T11:54:20;25.10;64.40
70456;DHT22;57916;51.996;5.180;2023-09-18T11:56:47;25.10;65.40
70456;DHT22;57916;51.996;5.180;2023-09-18T11:59:14;25.10;65.30
70456;DHT22;57916;51.996;5.180;2023-09-18T12:01:42;25.10;65.00
70456;DHT22;57916;51.996;5.180;2023-09-18T12:04:13;25.00;65.00
70456;DHT22;57916;51.996;5.180;2023-09-18T12:06:41;24.90;65.40
70456;DHT22;57916;51.996;5.180;2023-09-18T12:09:09;25.00;65.80
70456;DHT22;57916;51.996;5.180;2023-09-18T12:11:36;25.10;65.70
70456;DHT22;57916;51.996;5.180;2023-09-18T12:14:10;25.30;65.30
70456;DHT22;57916;51.996;5.180;2023-09-18T12:16:38;25.50;64.00
70456;DHT22;57916;51.996;5.180;2023-09-18T12:19:06;25.70;62.70
70456;DHT22;57916;51.996;5.180;2023-09-18T12:21:42;25.80;60.40
70456;DHT22;57916;51.996;5.180;2023-09-18T12:24:24;25.80;60.40
70456;DHT22;57916;51.996;5.180;2023-09-18T12:26:52;25.80;59.60
70456;DHT22;57916;51.996;5.180;2023-09-18T12:29:23;25.80;60.20
70456;DHT22;57916;51.996;5.180;2023-09-18T12:31:50;25.80;60.60
70456;DHT22;57916;51.996;5.180;2023-09-18T12:34:20;25.70;60.80
70456;DHT22;57916;51.996;5.180;2023-09-18T12:36:50;25.70;61.30
70456;DHT22;57916;51.996;5.180;2023-09-18T12:39:18;25.60;60.80
70456;DHT22;57916;51.996;5.180;2023-09-18T12:41:48;25.40;61.10
70456;DHT22;57916;51.996;5.180;2023-09-18T12:44:15;25.40;61.40
70456;DHT22;57916;51.996;5.180;2023-09-18T12:46:44;25.30;61.30
70456;DHT22;57916;51.996;5.180;2023-09-18T12:49:21;25.30;61.40
70456;DHT22;57916;51.996;5.180;2023-09-18T12:52:02;25.20;61.60
70456;DHT22;57916;51.996;5.180;2023-09-18T12:54:38;25.10;62.20
70456;DHT22;57916;51.996;5.180;2023-09-18T12:57:05;25.10;62.70
70456;DHT22;57916;51.996;5.180;2023-09-18T12:59:34;25.10;62.70
70456;DHT22;57916;51.996;5.180;2023-09-18T13:02:03;25.10;63.10
70456;DHT22;57916;51.996;5.180;2023-09-18T13:04:32;25.10;62.80
70456;DHT22;57916;51.996;5.180;2023-09-18T13:07:10;25.10;62.70
70456;DHT22;57916;51.996;5.180;2023-09-18T13:09:41;25.10;63.00
70456;DHT22;57916;51.996;5.180;2023-09-18T13:12:09;25.10;63.00
70456;DHT22;57916;51.996;5.180;2023-09-18T13:14:59;25.10;63.00
70456;DHT22;57916;51.996;5.180;2023-09-18T13:17:37;25.10;63.40
70456;DHT22;57916;51.996;5.180;2023-09-18T13:20:10;25.10;63.60
70456;DHT22;57916;51.996;5.180;2023-09-18T13:22:38;25.20;63.80
70456;DHT22;57916;51.996;5.180;2023-09-18T13:25:08;25.20;62.70
70456;DHT22;57916;51.996;5.180;2023-09-18T13:27:35;25.30;63.20
70456;DHT22;57916;51.996;5.180;2023-09-18T13:30:02;25.40;62.20
70456;DHT22;57916;51.996;5.180;2023-09-18T13:32:37;25.40;60.80
70456;DHT22;57916;51.996;5.180;2023-09-18T13:35:07;25.40;60.30
70456;DHT22;57916;51.996;5.180;2023-09-18T13:37:35;25.30;60.60
70456;DHT22;57916;51.996;5.180;2023-09-18T13:40:02;25.30;60.10
70456;DHT22;57916;51.996;5.180;2023-09-18T13:42:33;25.30;59.80
70456;DHT22;57916;51.996;5.180;2023-09-18T13:45:00;25.40;59.50
70456;DHT22;57916;51.996;5.180;2023-09-18T13:47:28;25.30;58.90
70456;DHT22;57916;51.996;5.180;2023-09-18T13:49:55;25.30;58.90
70456;DHT22;57916;51.996;5.180;2023-09-18T13:52:27;25.20;59.00
70456;DHT22;57916;51.996;5.180;2023-09-18T13:54:54;25.20;59.50
70456;DHT22;57916;51.996;5.180;2023-09-18T13:57:21;25.20;59.80
70456;DHT22;57916;51.996;5.180;2023-09-18T13:59:49;25.20;59.60
70456;DHT22;57916;51.996;5.180;2023-09-18T14:02:19;25.10;58.40
70456;DHT22;57916;51.996;5.180;2023-09-18T14:04:46;25.10;59.10
70456;DHT22;57916;51.996;5.180;2023-09-18T14:07:13;25.10;58.80
70456;DHT22;57916;51.996;5.180;2023-09-18T14:09:40;25.20;59.40
70456;DHT22;57916;51.996;5.180;2023-09-18T14:12:07;25.20;59.80
70456;DHT22;57916;51.996;5.180;2023-09-18T14:14:34;25.30;60.20
70456;DHT22;57916;51.996;5.180;2023-09-18T14:17:02;25.40;60.60
70456;DHT22;57916;51.996;5.180;2023-09-18T14:19:30;25.60;59.80
70456;DHT22;57916;51.996;5.180;2023-09-18T14:21:58;25.60;57.90
70456;DHT22;57916;51.996;5.180;2023-09-18T14:24:31;25.40;56.60
70456;DHT22;57916;51.996;5.180;2023-09-18T14:27:02;25.30;56.90
70456;DHT22;57916;51.996;5.180;2023-09-18T14:29:30;25.20;56.10
70456;DHT22;57916;51.996;5.180;2023-09-18T14:32:00;25.10;56.60
70456;DHT22;57916;51.996;5.180;2023-09-18T14:34:27;25.00;57.00
70456;DHT22;57916;51.996;5.180;2023-09-18T14:36:54;24.90;57.20
70456;DHT22;57916;51.996;5.180;2023-09-18T14:39:21;24.90;57.20
70456;DHT22;57916;51.996;5.180;2023-09-18T14:41:48;24.80;57.50
70456;DHT22;57916;51.996;5.180;2023-09-18T14:44:16;24.80;58.20
70456;DHT22;57916;51.996;5.180;2023-09-18T14:46:43;24.70;58.30
70456;DHT22;57916;51.996;5.180;2023-09-18T14:49:10;24.60;58.20
70456;DHT22;57916;51.996;5.180;2023-09-18T14:51:37;24.60;58.30
70456;DHT22;57916;51.996;5.180;2023-09-18T14:54:04;24.60;59.00
70456;DHT22;57916;51.996;5.180;2023-09-18T14:56:31;24.60;61.30
70456;DHT22;57916;51.996;5.180;2023-09-18T14:58:58;24.40;60.20
70456;DHT22;57916;51.996;5.180;2023-09-18T15:01:25;24.10;59.90
70456;DHT22;57916;51.996;5.180;2023-09-18T15:03:52;23.60;59.70
70456;DHT22;57916;51.996;5.180;2023-09-18T15:06:19;23.20;61.00
70456;DHT22;57916;51.996;5.180;2023-09-18T15:08:46;22.70;62.40
70456;DHT22;57916;51.996;5.180;2023-09-18T15:11:15;22.30;64.20
70456;DHT22;57916;51.996;5.180;2023-09-18T15:13:44;22.00;65.70
70456;DHT22;57916;51.996;5.180;2023-09-18T15:16:11;21.70;67.00
70456;DHT22;57916;51.996;5.180;2023-09-18T15:18:38;21.50;68.10
70456;DHT22;57916;51.996;5.180;2023-09-18T15:21:06;21.30;69.30
70456;DHT22;57916;51.996;5.180;2023-09-18T15:23:33;21.10;70.50
70456;DHT22;57916;51.996;5.180;2023-09-18T15:26:00;21.00;71.30
70456;DHT22;57916;51.996;5.180;2023-09-18T15:28:28;20.90;72.00
70456;DHT22;57916;51.996;5.180;2023-09-18T15:30:56;20.80;72.30
70456;DHT22;57916;51.996;5.180;2023-09-18T15:33:23;20.70;72.80
70456;DHT22;57916;51.996;5.180;2023-09-18T15:35:52;20.60;73.30
70456;DHT22;57916;51.996;5.180;2023-09-18T15:38:20;20.60;73.70
70456;DHT22;57916;51.996;5.180;2023-09-18T15:40:48;20.60;74.00
70456;DHT22;57916;51.996;5.180;2023-09-18T15:43:15;20.50;74.20
70456;DHT22;57916;51.996;5.180;2023-09-18T15:45:44;20.50;74.40
70456;DHT22;57916;51.996;5.180;2023-09-18T15:48:11;20.50;74.70
70456;DHT22;57916;51.996;5.180;2023-09-18T15:50:38;20.60;75.30
70456;DHT22;57916;51.996;5.180;2023-09-18T15:53:05;20.70;76.10
70456;DHT22;57916;51.996;5.180;2023-09-18T15:55:32;20.70;76.50